Humidity-temperature Sensor

Selected Measurement Type: Relative Humidity

 
Relative Humidity [%]     6 entries per hour
Showing data from 3/27/2016 (00:00:00 Z) to 3/20/2016 (00:01:00 Z)
Previous Next [ Day | 3-Days | 7-Days ]
First Last
Prev [ Day | 3-Days | 7-Days ] Next
First Last

Start Time:     :
End Time:     :     
Time (in GMT) :00 :50 :40 :30 :20 :10
Previous Next [ Day | 3-Days | 7-Days ]
First Last
Prev [ Day | 3-Days | 7-Days ] Next
First Last


123 => good data
MM => data is determined as missing
-- => data not received/configured
Back to Top Back to Top
3/27/2016 00:00 to 23:10 77.74 77.78 77.39 77.35 76.73 76.52
3/26/2016 23:00 to 22:10 77.13 76.81 76.93 77.57 77.21 77.47
3/26/2016 22:00 to 21:10 77.74 77.21 78.36 78.44 79.29 79.19
3/26/2016 21:00 to 20:10 79.35 79.53 79.17 79.76 79.05 80.32
3/26/2016 20:00 to 19:10 79.96 80.30 79.84 79.21 79.90 79.56
3/26/2016 19:00 to 18:10 80.63 80.26 81.25 81.37 81.88 81.23
3/26/2016 18:00 to 17:10 81.35 81.64 82.30 82.22 82.42 83.54
3/26/2016 17:00 to 16:10 83.80 83.58 84.22 83.13 82.65 83.23
3/26/2016 16:00 to 15:10 83.66 83.84 82.87 81.54 81.96 81.09
3/26/2016 15:00 to 14:10 81.09 81.29 82.06 82.42 82.22 82.26
3/26/2016 14:00 to 13:10 82.87 82.44 81.68 81.74 81.84 80.91
3/26/2016 13:00 to 12:10 81.76 80.73 81.41 81.23 82.28 80.34
3/26/2016 12:00 to 11:10 80.50 77.88 78.00 76.42 74.89 75.92
3/26/2016 11:00 to 10:10 76.14 76.42 77.51 76.48 77.68 77.29
3/26/2016 10:00 to 9:10 76.81 77.57 77.53 79.31 82.47 82.26
3/26/2016 09:00 to 8:10 82.20 84.75 85.23 88.53 89.26 88.31
3/26/2016 08:00 to 7:10 86.51 86.08 86.02 79.68 77.13 77.07
3/26/2016 07:00 to 6:10 77.57 76.99 78.00 76.02 73.15 72.40
3/26/2016 06:00 to 5:10 77.01 77.66 76.83 77.64 78.44 78.59
3/26/2016 05:00 to 4:10 77.07 79.33 75.55 73.82 71.80 80.34
3/26/2016 04:00 to 3:10 78.71 79.66 79.58 89.42 91.36 91.48
3/26/2016 03:00 to 2:10 91.30 90.45 89.48 88.65 89.19 89.32
3/26/2016 02:00 to 1:10 87.09 85.46 84.63 85.33 87.03 83.31
3/26/2016 01:00 to 0:10 84.08 84.14 80.63 80.71 79.07 79.23
3/26/2016 00:00 to 23:10 81.31 83.96 85.21 85.31 87.23 87.84
3/25/2016 23:00 to 22:10 87.78 88.31 88.71 90.18 91.07 91.74
3/25/2016 22:00 to 21:10 93.34 92.81 93.48 93.18 92.21 93.44
3/25/2016 21:00 to 20:10 94.89 95.94 96.37 96.65 97.04 97.36
3/25/2016 20:00 to 19:10 97.54 97.28 97.18 96.93 96.27 96.33
3/25/2016 19:00 to 18:10 96.53 96.51 96.61 96.55 96.43 95.88
3/25/2016 18:00 to 17:10 95.76 95.92 95.92 96.09 96.27 96.15
3/25/2016 17:00 to 16:10 94.19 92.59 86.06 84.08 83.19 83.52
3/25/2016 16:00 to 15:10 86.55 83.74 82.53 83.05 82.55 82.79
3/25/2016 15:00 to 14:10 82.57 83.88 86.67 87.25 87.48 87.46
3/25/2016 14:00 to 13:10 86.22 86.57 88.16 86.87 88.35 87.90
3/25/2016 13:00 to 12:10 84.43 84.43 83.60 84.87 86.00 83.68
3/25/2016 12:00 to 11:10 80.95 80.57 78.83 79.74 77.45 77.59
3/25/2016 11:00 to 10:10 77.86 80.42 83.68 85.42 87.15 87.44
3/25/2016 10:00 to 9:10 85.13 84.18 83.54 83.48 85.35 87.62
3/25/2016 09:00 to 8:10 88.18 90.12 90.27 90.31 90.35 90.69
3/25/2016 08:00 to 7:10 89.78 90.00 90.02 89.26 85.46 82.26
3/25/2016 07:00 to 6:10 82.30 81.62 81.15 82.02 84.38 86.37
3/25/2016 06:00 to 5:10 85.66 87.40 86.63 86.83 85.66 85.56
3/25/2016 05:00 to 4:10 82.36 82.85 87.23 91.01 89.46 90.53
3/25/2016 04:00 to 3:10 92.41 88.67 84.61 88.41 82.57 85.86
3/25/2016 03:00 to 2:10 86.28 84.83 85.80 85.68 85.23 85.46
3/25/2016 02:00 to 1:10 86.51 87.25 89.78 93.48 96.59 96.93
3/25/2016 01:00 to 0:10 97.04 96.87 96.85 96.77 96.65 96.77
3/25/2016 00:00 to 23:10 96.67 96.65 96.69 96.65 96.55 96.35
3/24/2016 23:00 to 22:10 96.00 95.88 95.76 95.56 95.07 94.87
3/24/2016 22:00 to 21:10 94.91 94.83 94.39 94.25 93.72 92.71
3/24/2016 21:00 to 20:10 91.48 89.70 90.00 89.86 90.04 89.80
3/24/2016 20:00 to 19:10 89.82 90.39 91.42 92.71 94.43 95.16
3/24/2016 19:00 to 18:10 95.36 95.07 94.19 91.94 86.79 87.29
3/24/2016 18:00 to 17:10 88.71 88.59 88.39 89.26 89.94 89.92
3/24/2016 17:00 to 16:10 91.13 91.24 91.92 92.39 93.28 93.07
3/24/2016 16:00 to 15:10 92.16 91.13 91.15 91.72 91.90 91.86
3/24/2016 15:00 to 14:10 91.56 92.43 93.86 93.72 92.63 90.81
3/24/2016 14:00 to 13:10 87.07 87.78 87.62 85.31 84.99 85.62
3/24/2016 13:00 to 12:10 85.35 85.80 87.48 87.56 89.15 90.27
3/24/2016 12:00 to 11:10 89.98 90.18 90.08 89.01 89.42 90.35
3/24/2016 11:00 to 10:10 91.17 91.34 88.16 85.23 85.27 85.19
3/24/2016 10:00 to 9:10 85.50 85.80 87.15 88.43 89.26 89.19
3/24/2016 09:00 to 8:10 88.87 89.09 89.56 89.46 90.25 91.88
3/24/2016 08:00 to 7:10 91.52 91.11 88.67 86.08 85.23 85.19
3/24/2016 07:00 to 6:10 86.14 86.37 86.06 85.05 84.99 85.38
3/24/2016 06:00 to 5:10 84.99 84.55 85.31 84.34 82.91 83.27
3/24/2016 05:00 to 4:10 83.62 85.03 86.43 85.94 85.17 86.02
3/24/2016 04:00 to 3:10 85.11 85.17 86.83 87.66 87.09 86.49
3/24/2016 03:00 to 2:10 85.54 85.94 83.58 85.52 85.78 87.21
3/24/2016 02:00 to 1:10 88.95 91.40 92.37 91.36 85.78 86.61
3/24/2016 01:00 to 0:10 84.71 84.36 83.33 82.63 82.22 82.12
3/24/2016 00:00 to 23:10 82.89 83.01 83.64 84.36 84.61 85.03
3/23/2016 23:00 to 22:10 86.00 85.13 83.72 83.54 84.97 84.89
3/23/2016 22:00 to 21:10 87.74 88.02 86.32 86.12 85.50 85.88
3/23/2016 21:00 to 20:10 86.65 88.43 90.37 90.31 87.58 82.47
3/23/2016 20:00 to 19:10 81.72 83.56 84.57 83.84 82.77 82.02
3/23/2016 19:00 to 18:10 81.39 82.38 84.99 87.36 90.14 92.00
3/23/2016 18:00 to 17:10 90.69 89.19 86.35 82.53 82.00 82.02
3/23/2016 17:00 to 16:10 82.51 84.06 83.90 84.34 84.63 84.85
3/23/2016 16:00 to 15:10 83.31 81.56 80.83 81.52 83.25 85.66
3/23/2016 15:00 to 14:10 86.47 86.16 85.11 86.22 85.01 83.48
3/23/2016 14:00 to 13:10 84.61 85.92 85.42 85.25 85.50 85.66
3/23/2016 13:00 to 12:10 86.14 86.61 86.20 87.84 89.86 90.63
3/23/2016 12:00 to 11:10 91.80 92.00 91.80 91.07 90.47 90.51
3/23/2016 11:00 to 10:10 89.52 88.26 86.02 84.34 81.78 81.88
3/23/2016 10:00 to 9:10 86.63 86.69 84.10 83.11 85.25 85.62
3/23/2016 09:00 to 8:10 85.78 84.77 83.35 81.11 80.00 83.96
3/23/2016 08:00 to 7:10 85.72 85.27 86.79 84.08 83.39 82.40
3/23/2016 07:00 to 6:10 83.13 82.77 82.79 84.95 87.94 89.88
3/23/2016 06:00 to 5:10 89.88 90.45 88.91 85.01 84.87 84.24
3/23/2016 05:00 to 4:10 83.66 83.54 84.41 84.41 83.35 83.60
3/23/2016 04:00 to 3:10 82.49 83.25 84.22 84.04 83.92 84.59
3/23/2016 03:00 to 2:10 85.86 85.96 84.75 85.29 85.80 85.98
3/23/2016 02:00 to 1:10 86.79 81.25 82.47 83.07 83.05 82.42
3/23/2016 01:00 to 0:10 84.53 78.93 78.18 78.52 78.71 79.88
3/23/2016 00:00 to 23:10 79.86 79.37 79.45 79.27 79.11 78.91
3/22/2016 23:00 to 22:10 80.00 79.23 80.00 79.31 79.33 80.50
3/22/2016 22:00 to 21:10 79.92 79.66 79.39 79.31 79.94 81.27
3/22/2016 21:00 to 20:10 82.93 82.49 82.91 83.07 81.66 81.90
3/22/2016 20:00 to 19:10 82.20 83.21 79.90 80.04 80.28 79.80
3/22/2016 19:00 to 18:10 78.85 79.64 80.65 79.19 79.47 78.87
3/22/2016 18:00 to 17:10 80.30 80.36 81.19 83.19 86.75 87.38
3/22/2016 17:00 to 16:10 89.15 90.89 91.68 90.69 90.67 88.18
3/22/2016 16:00 to 15:10 88.02 83.23 82.38 81.80 82.20 82.40
3/22/2016 15:00 to 14:10 82.14 81.94 81.64 82.16 82.81 84.41
3/22/2016 14:00 to 13:10 83.54 82.75 82.69 83.15 84.00 81.86
3/22/2016 13:00 to 12:10 80.63 79.96 80.26 80.48 80.65 80.87
3/22/2016 12:00 to 11:10 81.82 81.50 81.60 81.15 82.32 83.35
3/22/2016 11:00 to 10:10 82.85 83.72 84.16 83.41 83.48 83.50
3/22/2016 10:00 to 9:10 83.96 83.37 83.39 83.19 82.87 83.82
3/22/2016 09:00 to 8:10 84.24 84.43 85.03 85.23 84.87 85.03
3/22/2016 08:00 to 7:10 84.95 84.93 84.59 85.01 84.49 84.02
3/22/2016 07:00 to 6:10 84.02 83.84 82.93 82.08 80.55 80.79
3/22/2016 06:00 to 5:10 80.95 79.68 82.02 83.25 82.47 83.27
3/22/2016 05:00 to 4:10 84.63 85.21 84.71 84.51 83.80 84.87
3/22/2016 04:00 to 3:10 85.90 84.18 83.82 83.84 78.02 77.11
3/22/2016 03:00 to 2:10 76.32 76.06 77.03 76.40 76.71 76.52
3/22/2016 02:00 to 1:10 76.60 77.35 76.83 76.22 76.30 76.38
3/22/2016 01:00 to 0:10 76.20 76.44 76.36 76.36 75.68 75.53
3/22/2016 00:00 to 23:10 75.43 75.21 75.39 74.42 74.91 74.85
3/21/2016 23:00 to 22:10 74.48 74.71 74.06 73.92 73.47 73.39
3/21/2016 22:00 to 21:10 73.21 73.15 73.67 73.27 73.57 73.57
3/21/2016 21:00 to 20:10 73.67 73.17 72.64 72.70 73.17 73.13
3/21/2016 20:00 to 19:10 73.17 73.09 73.15 73.15 72.97 72.87
3/21/2016 19:00 to 18:10 73.51 73.59 72.91 72.95 73.35 73.49
3/21/2016 18:00 to 17:10 73.21 73.31 73.29 73.59 73.05 72.50
3/21/2016 17:00 to 16:10 71.86 71.43 71.84 72.93 73.33 72.46
3/21/2016 16:00 to 15:10 72.77 72.26 72.06 71.71 72.20 71.07
3/21/2016 15:00 to 14:10 72.12 73.03 73.84 73.96 75.07 75.45
3/21/2016 14:00 to 13:10 76.00 77.17 78.20 78.54 78.81 78.22
3/21/2016 13:00 to 12:10 78.56 78.16 77.72 77.98 78.40 78.16
3/21/2016 12:00 to 11:10 79.07 80.18 80.10 80.14 80.34 80.48
3/21/2016 11:00 to 10:10 80.69 80.99 80.89 81.11 80.93 80.24
3/21/2016 10:00 to 9:10 80.20 79.35 78.89 79.60 80.44 79.78
3/21/2016 09:00 to 8:10 79.49 79.21 78.95 79.33 80.36 79.51
3/21/2016 08:00 to 7:10 79.39 79.84 79.17 78.54 77.62 79.11
3/21/2016 07:00 to 6:10 79.17 78.65 76.95 77.27 77.19 76.30
3/21/2016 06:00 to 5:10 76.54 77.07 76.36 77.31 77.21 78.14
3/21/2016 05:00 to 4:10 78.30 79.05 76.73 76.87 78.87 78.75
3/21/2016 04:00 to 3:10 79.09 78.85 78.14 77.39 78.28 78.08
3/21/2016 03:00 to 2:10 79.45 79.35 78.61 77.94 78.28 78.67
3/21/2016 02:00 to 1:10 79.07 79.82 78.85 79.49 82.06 82.34
3/21/2016 01:00 to 0:10 83.92 82.93 81.39 83.09 80.34 79.49
3/21/2016 00:00 to 23:10 78.46 78.65 78.42 78.22 77.15 77.82
3/20/2016 23:00 to 22:10 76.79 78.85 77.62 79.86 80.55 81.01
3/20/2016 22:00 to 21:10 81.23 81.21 82.08 82.22 81.43 81.70
3/20/2016 21:00 to 20:10 81.29 81.72 82.63 82.85 82.79 82.81
3/20/2016 20:00 to 19:10 82.71 82.57 82.87 82.85 82.55 82.67
3/20/2016 19:00 to 18:10 81.52 81.15 83.01 85.05 85.35 87.27
3/20/2016 18:00 to 17:10 87.60 87.17 87.07 86.28 86.75 87.96
3/20/2016 17:00 to 16:10 87.36 88.47 88.61 88.35 89.21 89.56
3/20/2016 16:00 to 15:10 88.49 91.09 91.98 91.60 90.79 89.70
3/20/2016 15:00 to 14:10 89.76 90.39 90.45 89.11 86.83 87.25
3/20/2016 14:00 to 13:10 88.14 87.36 88.41 89.21 88.41 86.18
3/20/2016 13:00 to 12:10 86.28 87.46 87.88 86.81 85.66 84.34
3/20/2016 12:00 to 11:10 83.46 84.32 83.72 83.84 85.11 84.89
3/20/2016 11:00 to 10:10 85.38 85.01 85.15 84.75 84.16 84.57
3/20/2016 10:00 to 9:10 85.70 86.83 86.73 86.43 86.51 86.63
3/20/2016 09:00 to 8:10 87.32 87.60 87.32 87.09 86.85 86.43
3/20/2016 08:00 to 7:10 87.62 88.95 88.81 87.82 87.38 85.11
3/20/2016 07:00 to 6:10 83.78 83.33 84.22 83.60 82.67 82.65
3/20/2016 06:00 to 5:10 82.10 82.73 84.49 86.37 86.59 86.89
3/20/2016 05:00 to 4:10 87.72 88.18 85.64 86.30 87.62 86.97
3/20/2016 04:00 to 3:10 81.64 81.62 81.29 80.97 78.97 79.17
3/20/2016 03:00 to 2:10 81.58 85.40 86.30 85.13 85.62 85.46
3/20/2016 02:00 to 1:10 86.30 87.52 86.67 85.21 80.55 79.05
3/20/2016 01:00 to 0:10 79.03 78.61 79.56 79.41 78.95 79.45